Forside
METAR-TAF:

METAR-TAF

Lufthavne :

Baraboo Wisconsin Dells Airport

Baraboo / Wisconsin Dells, Wisconsin, USA

Breddekreds: 43-31-19N, længdekreds: 089-46-15W, højde: 298 m

Aktuelle vejr

Denne rapport blev lavet for 29 minutter siden, kl. 15:15 UTC
Vind 5 kt fra vestnordvest
Temperatur 10°C
Fugtighed 100%
Tryk 1008 hPa
Sigt: 16.1 km
Brudte skyer i en højde af 7500 ft
Overskyet i en højde af 8000 ft

METAR: KDLL 081515Z AUTO 30005KT 10SM BKN075 OVC080 10/10 A2977 RMK AO2 T01020100

Tid: 10:44 (15:44 UTC)


TAF: fraværende

Vejrobservationer og prognoser fra mere end 4000 lufthavne (METAR og TAF).

De gule og røde prikker repræsenterer de meteorologiske stationer.

Flyt musen over at se navnet på stationen.

Så klik over at se vejr observationer og prognoser.

At skifte det kort: Klik på de grønne knapper med et sort kors for at zoome ind; på den grønne knap med en bindestreg for at zoome ud; eller på de grønne pile for tilstødende kort.


METAR-TAF: